Latest Weather Observations for McArthur River Mine

IDD60801

Issued at 3:51 am CST Saturday 17 November 2018 (issued every 10 minutes, with the page automatically refreshed every 10 minutes)

About weather observations | Map of weather stations | Latest weather observations for NT | Other Formats
Station Details ID: 014704 Name: MCARTHUR RIVER MINE AIRPORT Lat: -16.44 Lon: 136.08 Height: 40.0 m
Data from the previous 72 hours. | See also: Recent months at McArthur River Mine
Date/Time
CST
Temp
°C
App
Temp
°C
Dew
Point
°C
Rel
Hum
%
Delta-T
°C
Wind Press
QNH
hPa
Press
MSL
hPa
Rain since
9am
mm
Dir  Spd
km/h
Gust
km/h
Spd
kts
Gust
kts
17/03:30am 26.1 31.9 25.8 98 0.2 SW 6 6 3 3 1008.9 1008.6 13.6
17/03:00am 26.5 32.6 26.2 98 0.2 SSW 6 7 3 4 1008.7 1008.4 13.6
17/02:30am 26.7 34.1 26.4 98 0.2 CALM 0 4 0 2 1008.8 1008.5 13.6
17/02:00am 27.2 34.5 26.9 98 0.2 N 2 6 1 3 1009.2 1008.9 13.6
17/01:30am 27.0 34.6 26.7 98 0.2 CALM 0 0 0 0 1009.5 1009.2 13.6
17/01:00am 26.9 34.4 26.6 98 0.2 CALM 0 0 0 0 1010.0 1009.7 13.6
17/12:30am 27.1 34.7 26.8 98 0.2 CALM 0 0 0 0 1010.3 1010.0 13.6
17/12:00am 27.0 34.2 26.7 98 0.2 E 2 6 1 3 1010.7 1010.4 13.6
 
Date/Time
CST
Temp
°C
App
Temp
°C
Dew
Point
°C
Rel
Hum
%
Delta-T
°C
Wind Press
QNH
hPa
Press
MSL
hPa
Rain since
9am
mm
Dir  Spd
km/h
Gust
km/h
Spd
kts
Gust
kts
16/11:30pm 26.8 33.0 26.3 97 0.4 ESE 6 6 3 3 1010.8 1010.5 13.6
16/11:00pm 26.7 33.9 26.2 97 0.4 CALM 0 0 0 0 1011.1 1010.8 13.6
16/10:30pm 26.9 34.3 26.4 97 0.4 CALM 0 0 0 0 1011.6 1011.3 13.6
16/10:00pm 26.5 32.6 26.2 98 0.2 E 6 7 3 4 1011.3 1011.0 13.6
16/09:30pm 26.0 31.8 25.7 98 0.2 NE 6 9 3 5 1010.9 1010.6 13.6
16/09:00pm 25.3 30.4 25.0 98 0.2 ENE 7 11 4 6 1010.9 1010.6 13.6
16/08:30pm 24.9 29.5 24.7 99 0.1 E 9 13 5 7 1010.7 1010.4 13.6
16/08:00pm 23.7 27.9 23.4 98 0.2 WSW 7 9 4 5 1010.4 1010.1 13.6
16/07:44pm 22.7 25.9 22.4 98 0.2 W 9 15 5 8 1010.5 1010.2 13.6
16/07:30pm 23.5 24.2 23.0 97 0.3 SSE 24 44 13 24 1011.1 1010.8 13.2
16/07:20pm 22.3 16.9 21.6 96 0.5 SSE 52 91 28 49 1011.8 1011.5 10.6
16/07:14pm 22.4 17.2 19.6 84 1.8 SE 46 78 25 42 1011.2 1010.9 3.4
16/07:13pm 22.2 16.8 18.0 77 2.6 SE 43 74 23 40 1011.3 1011.0 1.6
16/07:05pm 30.2 28.8 18.9 50 7.3 ESE 24 48 13 26 1010.4 1010.1 0.0
16/07:00pm 31.0 30.9 18.7 48 8.0 E 17 43 9 23 1010.4 1010.1 0.0
16/06:59pm 31.6 31.4 18.6 46 8.4 ENE 17 43 9 23 1010.4 1010.1 0.0
16/06:30pm 33.9 34.1 17.6 38 10.5 NNE 13 22 7 12 1009.1 1008.8 0.0
16/06:00pm 34.2 33.0 17.4 36 10.8 NNE 20 30 11 16 1008.3 1008.0 0.0
16/05:30pm 35.5 34.4 16.3 32 12.2 NNE 17 24 9 13 1007.7 1007.4 0.0
16/05:00pm 35.2 34.4 17.9 36 11.2 NE 19 28 10 15 1007.7 1007.4 0.0
16/04:30pm 35.6 34.7 18.2 35 11.4 NNE 20 32 11 17 1007.4 1007.1 0.0
16/04:00pm 36.2 35.5 17.4 33 12.2 NE 17 32 9 17 1007.5 1007.2 0.0
16/03:30pm 36.2 36.3 19.2 37 11.3 NNE 17 28 9 15 1007.8 1007.5 0.0
16/03:00pm 35.0 34.5 19.0 39 10.6 NE 20 28 11 15 1008.3 1008.0 0.0
16/02:30pm 36.1 35.2 18.2 34 11.7 NE 20 28 11 15 1008.8 1008.5 0.0
16/02:00pm 34.9 33.7 17.6 35 11.2 NE 20 33 11 18 1009.5 1009.2 0.0
16/01:30pm 37.8 36.5 17.2 29 13.4 NE 20 32 11 17 1009.6 1009.3 0.0
16/01:00pm 36.9 35.7 17.5 32 12.6 NNE 20 35 11 19 1009.9 1009.6 0.0
16/12:30pm 36.2 34.2 19.2 37 11.3 NNE 28 43 15 23 1010.4 1010.1 0.0
16/12:00pm 34.3 31.4 17.1 36 11.0 NE 28 43 15 23 1010.9 1010.6 0.0
16/11:30am 36.3 35.5 17.0 32 12.4 NE 17 39 9 21 1010.9 1010.6 0.0
16/11:00am 37.4 35.4 16.4 29 13.5 NE 22 33 12 18 1011.2 1010.9 0.0
16/10:30am 36.6 35.6 15.7 29 13.2 NNE 15 26 8 14 1011.4 1011.1 0.0
16/10:00am 35.1 36.7 19.1 39 10.6 NNE 9 13 5 7 1011.6 1011.3 0.0
16/09:30am 33.9 35.2 19.2 42 9.7 NE 11 19 6 10 1011.7 1011.4 0.0
16/09:00am 33.2 37.2 21.4 50 8.0 ENE 2 11 1 6 1011.8 1011.5 0.0
16/08:30am 31.8 35.0 21.3 53 7.1 ESE 6 9 3 5 1011.9 1011.6 0.0
16/08:00am 30.8 34.8 22.7 62 5.5 NNW 6 13 3 7 1011.8 1011.5 0.0
16/07:30am 29.7 33.1 22.7 66 4.8 N 9 13 5 7 1011.7 1011.4 0.0
16/07:00am 29.0 32.9 23.0 70 4.1 NNW 7 11 4 6 1011.5 1011.2 0.0
16/06:30am 28.6 33.9 23.1 72 3.8 CALM 0 0 0 0 1011.4 1011.1 0.0
16/06:00am 28.3 33.6 23.0 73 3.6 CALM 0 0 0 0 1011.4 1011.1 0.0
16/05:30am 28.3 33.2 23.0 73 3.6 N 2 6 1 3 1011.1 1010.8 0.0
16/05:00am 28.3 32.4 23.0 73 3.6 NNW 6 7 3 4 1010.8 1010.5 0.0
16/04:30am 28.5 32.6 23.2 73 3.6 N 7 9 4 5 1010.4 1010.1 0.0
16/04:00am 28.5 32.4 23.0 72 3.8 NNE 7 11 4 6 1010.2 1009.9 0.0
16/03:30am 28.8 32.7 23.0 71 4.0 NNE 7 11 4 6 1010.0 1009.7 0.0
16/03:00am 28.8 32.5 22.3 68 4.4 NNE 6 11 3 6 1010.1 1009.8 0.0
16/02:30am 29.0 32.2 21.7 64 4.9 N 7 9 4 5 1010.3 1010.0 0.0
16/02:00am 29.3 33.4 21.5 63 5.2 NE 2 7 1 4 1010.5 1010.2 0.0
16/01:30am 29.5 32.2 21.4 61 5.4 NE 9 15 5 8 1010.7 1010.4 0.0
16/01:00am 29.7 32.0 21.4 61 5.6 ENE 11 19 6 10 1011.3 1011.0 0.0
16/12:30am 29.7 32.4 21.4 61 5.6 E 9 15 5 8 1011.3 1011.0 0.0
16/12:00am 29.9 32.7 21.6 61 5.6 ENE 9 15 5 8 1011.3 1011.0 0.0
 
Date/Time
CST
Temp
°C
App
Temp
°C
Dew
Point
°C
Rel
Hum
%
Delta-T
°C
Wind Press
QNH
hPa
Press
MSL
hPa
Rain since
9am
mm
Dir  Spd
km/h
Gust
km/h
Spd
kts
Gust
kts
15/11:30pm 30.4 32.2 21.2 58 6.2 ENE 13 20 7 11 1012.0 1011.7 0.0
15/11:00pm 30.7 32.6 20.6 54 6.7 ENE 11 17 6 9 1011.8 1011.5 0.0
15/10:30pm 30.9 33.0 20.2 53 7.1 NE 9 13 5 7 1011.7 1011.4 0.0
15/10:00pm 31.2 32.4 19.9 51 7.5 ENE 13 20 7 11 1011.3 1011.0 0.0
15/09:30pm 31.3 32.7 19.6 49 7.7 ENE 11 17 6 9 1011.3 1011.0 0.0
15/09:00pm 31.6 33.6 19.9 50 7.7 NE 9 15 5 8 1010.9 1010.6 0.0
15/08:30pm 31.7 33.0 19.3 47 8.1 ENE 11 17 6 9 1010.9 1010.6 0.0
15/08:00pm 32.4 33.5 18.9 44 8.8 ENE 11 17 6 9 1010.6 1010.3 0.0
15/07:30pm 32.8 33.6 18.2 42 9.5 ENE 11 15 6 8 1010.3 1010.0 0.0
15/07:00pm 33.4 33.3 14.9 32 11.5 E 9 13 5 7 1009.9 1009.6 0.0
15/06:30pm 33.6 34.3 16.0 34 11.1 ENE 7 11 4 6 1009.6 1009.3 0.0
15/06:00pm 33.5 34.6 17.2 37 10.4 ENE 7 13 4 7 1009.1 1008.8 0.0
15/05:30pm 33.1 34.0 18.5 42 9.5 ENE 11 17 6 9 1008.9 1008.6 0.0
15/05:00pm 33.2 32.9 18.2 41 9.7 ENE 17 28 9 15 1009.1 1008.8 0.0
15/04:30pm 33.7 33.4 17.4 37 10.5 ENE 15 28 8 15 1009.1 1008.8 0.0
15/04:00pm 34.8 33.6 17.5 35 11.2 E 20 37 11 20 1009.3 1009.0 0.0
15/03:30pm 35.7 35.2 14.9 29 13.0 NNE 11 24 6 13 1009.2 1008.9 0.0
15/03:00pm 35.7 36.0 14.9 29 13.0 S 7 11 4 6 1009.5 1009.2 0.0
15/02:30pm 35.6 36.4 16.4 32 12.2 E 7 13 4 7 1010.1 1009.8 0.0
15/02:00pm 34.5 36.2 18.1 37 10.7 E 6 13 3 7 1010.6 1010.3 0.0
15/01:30pm 33.7 35.3 18.2 39 10.1 N 7 13 4 7 1010.9 1010.6 0.0
15/01:00pm 32.9 35.0 19.4 45 8.9 NNE 7 11 4 6 1011.5 1011.2 0.0
15/12:30pm 32.3 33.9 19.2 46 8.6 NE 9 15 5 8 1011.7 1011.4 0.0
15/12:00pm 32.4 34.5 18.9 44 8.8 ESE 6 9 3 5 1012.0 1011.7 0.0
15/11:30am 30.9 33.8 19.9 52 7.3 SW 4 11 2 6 1012.0 1011.7 0.0
15/11:00am 30.1 33.3 20.6 56 6.3 WSW 4 9 2 5 1012.6 1012.3 0.0
15/10:30am 29.5 31.8 20.6 58 5.9 SSW 9 13 5 7 1012.9 1012.6 0.0
15/10:00am 29.3 31.5 20.5 59 5.8 WSW 9 13 5 7 1013.2 1012.9 0.0
15/09:30am 29.4 31.8 20.8 60 5.7 SW 9 13 5 7 1013.2 1012.9 0.0
15/09:00am 29.1 31.9 20.8 61 5.5 SSW 7 15 4 8 1013.0 1012.7 1.2
15/08:30am 27.7 29.7 20.0 63 5.0 SSW 9 15 5 8 1013.2 1012.9 1.0
15/08:00am 26.8 28.5 20.2 67 4.3 SSW 11 13 6 7 1013.0 1012.7 1.0
15/07:30am 26.5 28.5 19.9 67 4.3 S 9 11 5 6 1013.3 1013.0 1.0
15/07:00am 26.2 28.7 20.3 70 3.9 SE 7 11 4 6 1013.5 1013.2 1.0
15/06:30am 25.8 28.4 20.1 71 3.7 ESE 6 9 3 5 1013.2 1012.9 1.0
15/06:00am 26.0 28.0 19.9 69 4.0 SE 9 17 5 9 1012.7 1012.4 1.0
15/05:30am 25.6 27.6 20.8 75 3.2 SE 11 17 6 9 1012.2 1011.9 1.0
15/05:00am 25.0 28.1 21.5 81 2.3 ENE 7 17 4 9 1012.2 1011.9 1.0
15/04:30am 24.7 28.4 22.2 86 1.7 S 6 7 3 4 1011.7 1011.4 1.0
15/04:00am 24.3 26.7 22.2 88 1.4 S 13 19 7 10 1011.7 1011.4 1.0
15/03:42am 24.1 25.8 22.4 90 1.1 S 17 20 9 11 1011.7 1011.4 1.0
15/03:30am 24.1 25.0 22.0 88 1.4 SSW 20 33 11 18 1011.7 1011.4 1.0
15/03:25am 24.2 23.7 21.5 85 1.8 SSW 26 39 14 21 1011.7 1011.4 0.8
15/03:07am 27.6 27.5 19.9 63 5.0 S 20 48 11 26 1011.4 1011.1 0.0
15/03:00am 28.7 31.6 23.1 71 3.8 SSW 13 15 7 8 1011.1 1010.8 0.0
15/02:30am 28.5 32.2 23.2 73 3.6 SSW 9 11 5 6 1011.1 1010.8 0.0
15/02:00am 28.3 32.0 23.2 74 3.5 S 9 13 5 7 1011.1 1010.8 0.0
15/01:30am 28.4 33.7 23.1 73 3.6 CALM 0 0 0 0 1010.5 1010.2 0.0
15/01:00am 28.7 34.0 23.1 71 3.8 CALM 0 6 0 3 1010.3 1010.0 0.0
15/12:30am 28.9 32.5 23.1 71 4.0 NNE 9 13 5 7 1010.3 1010.0 0.0
15/12:00am 29.1 32.0 23.1 70 4.1 NNE 13 17 7 9 1010.0 1009.7 0.0
 
Date/Time
CST
Temp
°C
App
Temp
°C
Dew
Point
°C
Rel
Hum
%
Delta-T
°C
Wind Press
QNH
hPa
Press
MSL
hPa
Rain since
9am
mm
Dir  Spd
km/h
Gust
km/h
Spd
kts
Gust
kts
14/11:30pm 29.4 32.1 22.9 68 4.4 NNE 13 22 7 12 1010.2 1009.9 0.0
14/11:00pm 29.6 31.9 22.8 67 4.6 NNE 15 22 8 12 1010.4 1010.1 0.0
14/10:30pm 29.9 32.5 22.6 65 5.0 NNE 13 20 7 11 1010.4 1010.1 0.0
14/10:00pm 30.5 31.8 21.6 59 6.0 NE 17 22 9 12 1010.1 1009.8 0.0
14/09:30pm 31.0 32.2 20.6 54 6.9 NNE 15 22 8 12 1009.7 1009.4 0.0
14/09:00pm 31.4 32.1 19.7 49 7.7 NNE 15 20 8 11 1009.4 1009.1 0.0
14/08:30pm 31.9 32.3 19.9 49 7.9 N 17 26 9 14 1008.5 1008.2 0.0
14/08:00pm 32.6 33.9 20.2 48 8.2 NNE 13 20 7 11 1008.6 1008.3 0.0
14/07:30pm 33.2 34.1 20.0 45 8.8 NNE 15 24 8 13 1007.9 1007.6 0.0
14/07:00pm 33.9 35.1 19.9 43 9.3 NNE 13 22 7 12 1007.8 1007.5 0.0
14/06:30pm 34.6 35.6 19.4 40 10.1 NNE 13 26 7 14 1007.4 1007.1 0.0
14/06:00pm 35.2 36.4 18.3 36 11.1 NE 9 13 5 7 1006.8 1006.5 0.0
14/05:30pm 35.9 38.2 17.6 34 11.9 N 2 11 1 6 1007.0 1006.7 0.0
14/05:00pm 35.7 37.1 17.4 33 11.8 NNW 6 9 3 5 1007.6 1007.3 0.0
14/04:30pm 35.8 37.1 17.5 34 11.9 NNW 7 19 4 10 1008.1 1007.8 0.0
14/04:00pm 36.6 36.8 17.7 32 12.3 NNE 13 22 7 12 1007.8 1007.5 0.0
14/03:30pm 36.3 36.4 17.4 32 12.3 NNW 13 19 7 10 1008.1 1007.8 0.0
14/03:00pm 36.8 36.3 17.9 33 12.4 N 17 28 9 15 1008.0 1007.7 0.0
14/02:30pm 35.8 35.6 17.5 34 11.9 NE 15 24 8 13 1008.5 1008.2 0.0
14/02:00pm 35.8 36.1 18.8 36 11.2 N 15 22 8 12 1008.6 1008.3 0.0
14/01:30pm 36.1 36.5 19.9 38 10.8 NNE 17 26 9 14 1009.2 1008.9 0.0
14/01:00pm 35.4 35.4 20.1 40 10.2 NNE 20 32 11 17 1009.7 1009.4 0.0
14/12:30pm 36.3 36.8 20.1 38 10.9 NNE 17 28 9 15 1010.0 1009.7 0.0
14/12:00pm 35.6 36.0 19.1 38 10.9 NE 15 24 8 13 1010.3 1010.0 0.0
14/11:30am 35.9 36.1 19.3 37 11.0 NE 17 26 9 14 1010.6 1010.3 0.0
14/11:00am 35.2 37.2 19.9 40 10.2 NNE 9 22 5 12 1011.0 1010.7 0.0
14/10:30am 34.1 36.0 20.5 45 9.1 ENE 11 19 6 10 1011.4 1011.1 0.0
14/10:00am 33.2 35.5 21.4 50 8.0 NE 11 17 6 9 1011.9 1011.6 0.0
14/09:30am 33.0 36.6 22.4 53 7.3 E 7 17 4 9 1012.1 1011.8 0.0
14/09:00am 32.0 35.6 22.4 57 6.6 N 7 13 4 7 1012.1 1011.8 0.0
14/08:30am 31.0 34.6 23.1 63 5.4 ENE 9 15 5 8 1011.9 1011.6 0.0
14/08:00am 30.2 34.4 23.4 67 4.7 NE 7 15 4 8 1012.0 1011.7 0.0
14/07:30am 29.5 32.9 23.4 69 4.2 NNE 11 15 6 8 1011.4 1011.1 0.0
14/07:00am 28.9 32.5 23.8 74 3.5 N 11 17 6 9 1010.3 1010.0 0.0
14/06:30am 28.2 30.6 23.6 76 3.2 N 17 24 9 13 1009.6 1009.3 0.0
14/06:00am 28.2 31.6 23.3 75 3.4 NNE 11 15 6 8 1009.9 1009.6 0.0
14/05:30am 28.3 31.5 23.7 76 3.2 NNE 13 20 7 11 1009.7 1009.4 0.0
14/05:00am 28.3 32.8 23.9 77 3.0 ENE 7 13 4 7 1010.1 1009.8 0.0
14/04:30am 28.4 32.4 23.8 76 3.2 ENE 9 19 5 10 1009.4 1009.1 0.0
14/04:00am 28.6 32.2 23.7 75 3.4 NE 11 17 6 9 1008.8 1008.5 0.0

Other Formats:

Comma delimited format used in spreadsheet applications
http://www.bom.gov.au/fwo/IDD60801/IDD60801.94239.axf

JavaScript Object Notation format (JSON) in row-major order
http://www.bom.gov.au/fwo/IDD60801/IDD60801.94239.json